Airfield :
LOGIN :

Register | Disclaimer

   EN    FR    IT 

 










Legend :    VFR   Marginal VFR   IFR   Intensive IFR   Very Intensive IFR
Visi :
Ceiling :
>= 8 km
>= 3000ft
5 to 8 km
1000 to 3000 ft
1500m to 5 km
500 to 1000 ft
800 to 1500m
200 to 500 ft
< 800m
< 200 ft
Symbols :   Thunderstorms  Fog  Heavy snow  Heavy precipitations  Wind > 20 kt
SIGMETs :     Misc.  Thunderstorms  Icing  Turbulence  Mountain Waves  Volcanic Ashes







- Airport Elevation : 39 ft
- IATA code : SUF


LICA - Lamezia Terme

CURRENT METAR :
  • 262050Z 09008KT 9999 FEW020 SCT080 20/15 Q1019

EXPIRED METARs :
  • 261950Z 06006KT 9999 FEW025 SCT080 20/15 Q1019
  • 261850Z 07007KT 9999 FEW025 SCT080 20/15 Q1018

TAF TAF LICA
Valid from the 26 at 18:00 until the 27 at 18:00 UTC


261700Z 2618/2718 08012KT 9999 SCT020
TEMPO 2706/2718 3000 TSRA
No reported NOTAMs for that airfield.
1 SIGMET reported for the Roma FIR (LIRR) :
 
Embedded thunderstorms
LIRR SIGMET 9 VALID 262000/262300 LIIB
LIRR ROMA FIR EMBD TS FCST WI N4010 E01205 - N4010 E01311 - N3945 E01410 - N3837 E01622 - N3723 E01612 - N3713 E01457 - N3738 E01159 - N3821 E01101 - N3934 E01055 - N4010 E01205 TOP ABV FL390 MOV SE NC=



MET'MAP, your aeronautical weather chart ! - Copyright ORBIFLY December 2007 - Disclaimer

ORBIFLY MET'MAP TEAM :

Programming & Development : Alexandra Zaïnal
Concept & Development : Baudouin d'Aumeries
Co-Development & Prog : Marc-Olivier Méhu
Technical & hardware support : Manuel Goepfert

Contact : metmap@orbifly.com




SOURCES & CREDITS :

   NOAA